createdAt,value
2023-10-23T00:01:45.408Z,3.20
2023-10-23T00:04:12.795Z,3.40
2023-10-23T00:06:40.338Z,3.75
2023-10-23T00:09:07.717Z,3.63
2023-10-23T00:11:35.135Z,4.03
2023-10-23T00:14:03.235Z,3.28
2023-10-23T00:16:30.633Z,3.47
2023-10-23T00:18:58.297Z,2.90
2023-10-23T00:21:26.024Z,3.55
2023-10-23T00:23:53.501Z,3.50
2023-10-23T00:26:21.157Z,3.20
2023-10-23T00:28:53.893Z,3.92
2023-10-23T00:31:21.272Z,3.65
2023-10-23T00:33:48.875Z,3.20
2023-10-23T00:36:16.415Z,3.08
2023-10-23T00:38:43.743Z,3.40
2023-10-23T00:41:11.144Z,3.10
2023-10-23T00:43:38.456Z,3.60
2023-10-23T00:46:13.014Z,3.30
2023-10-23T00:48:40.511Z,3.65
2023-10-23T00:51:08.399Z,3.50
2023-10-23T00:53:37.272Z,3.15
2023-10-23T00:56:08.669Z,3.00
2023-10-23T00:58:40.002Z,3.25
2023-10-23T01:01:08.374Z,3.15
2023-10-23T01:03:35.946Z,3.20
2023-10-23T01:06:04.252Z,3.30
2023-10-23T01:08:31.984Z,3.63
2023-10-23T01:11:00.056Z,3.22
2023-10-23T01:13:28.529Z,3.22
2023-10-23T01:15:56.360Z,3.70
2023-10-23T01:18:23.769Z,2.88
2023-10-23T01:20:51.284Z,3.38
2023-10-23T01:23:18.723Z,2.90
2023-10-23T01:25:46.204Z,3.10
2023-10-23T01:28:13.501Z,3.47
2023-10-23T01:30:41.763Z,3.30
2023-10-23T01:33:09.434Z,3.50
2023-10-23T01:35:40.132Z,3.10
2023-10-23T01:38:07.614Z,3.10
2023-10-23T01:40:35.180Z,2.60
2023-10-23T01:43:02.679Z,2.60
2023-10-23T01:45:35.517Z,2.88
2023-10-23T01:48:03.064Z,2.63
2023-10-23T01:50:30.702Z,3.00
2023-10-23T01:52:58.339Z,2.67
2023-10-23T01:55:25.739Z,3.30
2023-10-23T01:57:53.291Z,3.30
2023-10-23T02:00:20.803Z,3.20
2023-10-23T02:02:48.220Z,3.70
2023-10-23T02:05:15.774Z,3.33
2023-10-23T02:07:43.713Z,3.05
2023-10-23T02:10:11.139Z,3.05
2023-10-23T02:12:38.569Z,3.70
2023-10-23T02:15:07.898Z,3.65
2023-10-23T02:17:35.353Z,3.83
2023-10-23T02:20:03.579Z,3.75
2023-10-23T02:22:30.966Z,3.85
2023-10-23T02:24:58.382Z,4.40
2023-10-23T02:27:25.908Z,5.53
2023-10-23T02:29:53.180Z,5.30
2023-10-23T02:32:20.553Z,5.63
2023-10-23T02:34:49.590Z,4.90
2023-10-23T02:37:17.221Z,5.75
2023-10-23T02:39:44.638Z,5.93
2023-10-23T02:42:12.101Z,5.70
2023-10-23T02:44:40.392Z,5.95
2023-10-23T02:47:07.733Z,6.38
2023-10-23T02:49:35.376Z,5.72
2023-10-23T02:52:02.842Z,6.95
2023-10-23T02:54:30.714Z,5.93
2023-10-23T02:56:58.222Z,6.45
2023-10-23T02:59:25.603Z,5.38
2023-10-23T03:01:53.006Z,5.80
2023-10-23T03:04:20.448Z,5.70
2023-10-23T03:06:47.869Z,5.50
2023-10-23T03:09:15.284Z,5.20
2023-10-23T03:11:42.901Z,4.78
2023-10-23T03:14:11.741Z,4.80
2023-10-23T03:16:39.200Z,4.78
2023-10-23T03:19:06.807Z,5.45
2023-10-23T03:21:34.146Z,5.03
2023-10-23T03:24:01.610Z,4.90
2023-10-23T03:26:29.623Z,5.30
2023-10-23T03:28:57.073Z,5.38
2023-10-23T03:31:24.610Z,4.88
2023-10-23T03:33:53.425Z,4.47
2023-10-23T03:36:20.923Z,4.47
2023-10-23T03:38:48.704Z,4.22
2023-10-23T03:41:16.048Z,4.13
2023-10-23T03:43:43.421Z,4.57
2023-10-23T03:46:11.400Z,3.90
2023-10-23T03:48:39.092Z,4.50
2023-10-23T03:51:06.782Z,4.63
2023-10-23T03:53:34.497Z,3.72
2023-10-23T03:56:02.099Z,4.18
2023-10-23T03:58:29.366Z,4.05
2023-10-23T04:00:56.823Z,3.85
2023-10-23T04:03:24.260Z,3.80
2023-10-23T04:05:54.387Z,3.17
2023-10-23T04:08:22.154Z,4.10
2023-10-23T04:10:50.429Z,3.92
2023-10-23T04:13:18.117Z,3.70
2023-10-23T04:15:54.505Z,3.78
2023-10-23T04:18:22.088Z,4.00
2023-10-23T04:20:49.446Z,3.55
2023-10-23T04:23:16.798Z,4.28
2023-10-23T04:25:44.098Z,3.55
2023-10-23T04:28:11.417Z,3.30
2023-10-23T04:30:40.196Z,3.45
2023-10-23T04:33:07.559Z,4.10
2023-10-23T04:35:42.289Z,2.95
2023-10-23T04:40:37.124Z,3.70
2023-10-23T04:43:05.337Z,3.78
2023-10-23T04:45:35.494Z,3.92
2023-10-23T04:48:03.421Z,3.53
2023-10-23T04:50:34.281Z,4.05
2023-10-23T04:53:01.693Z,3.58
2023-10-23T04:55:37.622Z,3.55
2023-10-23T04:58:05.442Z,4.20
2023-10-23T05:00:35.624Z,4.30
2023-10-23T05:03:04.599Z,3.58
2023-10-23T05:05:32.747Z,3.50
2023-10-23T05:08:00.656Z,3.78
2023-10-23T05:10:28.254Z,4.00
2023-10-23T05:12:57.084Z,4.00
2023-10-23T05:15:25.311Z,3.85
2023-10-23T05:17:52.776Z,4.30
2023-10-23T05:20:20.092Z,4.30
2023-10-23T05:22:47.512Z,4.30
2023-10-23T05:25:14.908Z,4.60
2023-10-23T05:27:42.399Z,4.53
2023-10-23T05:30:09.865Z,3.75
2023-10-23T05:32:39.244Z,4.65
2023-10-23T05:35:06.886Z,4.50
2023-10-23T05:37:37.528Z,5.13
2023-10-23T05:40:06.081Z,5.35
2023-10-23T05:42:33.586Z,5.10
2023-10-23T05:45:03.982Z,4.82
2023-10-23T05:47:31.497Z,5.35
2023-10-23T05:49:58.936Z,5.50
2023-10-23T05:52:26.216Z,6.45
2023-10-23T05:54:53.614Z,6.25
2023-10-23T05:57:21.052Z,6.25
2023-10-23T05:59:48.330Z,6.95
2023-10-23T06:02:16.453Z,6.70
2023-10-23T06:04:44.854Z,7.25
2023-10-23T06:07:13.482Z,7.63
2023-10-23T06:09:41.399Z,7.00
2023-10-23T06:12:10.858Z,7.38
2023-10-23T06:14:38.693Z,7.38
2023-10-23T06:17:06.155Z,8.35
2023-10-23T06:19:33.662Z,6.80
2023-10-23T06:22:01.007Z,7.75
2023-10-23T06:24:29.182Z,7.60
2023-10-23T06:26:56.673Z,7.20
2023-10-23T06:29:24.942Z,7.28
2023-10-23T06:31:52.413Z,7.30
2023-10-23T06:34:19.990Z,6.75
2023-10-23T06:36:47.481Z,6.65
2023-10-23T06:39:14.980Z,6.15
2023-10-23T06:41:42.327Z,6.93
2023-10-23T06:44:11.035Z,6.22
2023-10-23T06:46:38.589Z,6.15
2023-10-23T06:49:06.037Z,6.60
2023-10-23T06:51:33.298Z,6.35
2023-10-23T06:54:00.740Z,6.45
2023-10-23T06:56:28.173Z,5.93
2023-10-23T06:58:55.464Z,5.90
2023-10-23T07:01:30.356Z,6.07
2023-10-23T07:04:05.754Z,5.90
2023-10-23T07:06:33.317Z,5.80
2023-10-23T07:09:00.960Z,5.47
2023-10-23T07:11:28.438Z,5.40
2023-10-23T07:13:55.860Z,5.85
2023-10-23T07:16:23.809Z,6.57
2023-10-23T07:18:51.422Z,6.25
2023-10-23T07:21:19.967Z,5.03
2023-10-23T07:23:47.428Z,5.25
2023-10-23T07:26:16.324Z,5.78
2023-10-23T07:28:43.859Z,5.65
2023-10-23T07:31:12.945Z,5.82
2023-10-23T07:33:40.484Z,5.40
2023-10-23T07:36:09.323Z,5.43
2023-10-23T07:38:37.513Z,5.20
2023-10-23T07:41:05.529Z,5.68
2023-10-23T07:43:33.145Z,4.55
2023-10-23T07:46:15.754Z,4.72
2023-10-23T07:48:44.913Z,4.68
2023-10-23T07:51:12.597Z,4.72
2023-10-23T07:53:39.968Z,4.70
2023-10-23T07:56:07.635Z,4.97
2023-10-23T07:58:35.311Z,4.50
2023-10-23T08:01:23.603Z,4.38
2023-10-23T08:03:51.284Z,4.68
2023-10-23T08:06:18.603Z,4.93
2023-10-23T08:08:47.518Z,4.47
2023-10-23T08:11:14.977Z,4.10
2023-10-23T08:13:42.676Z,5.65
2023-10-23T08:16:10.312Z,4.63
2023-10-23T08:18:40.869Z,4.65
2023-10-23T08:21:13.430Z,4.30
2023-10-23T08:23:41.565Z,4.60
2023-10-23T08:26:09.021Z,4.43
2023-10-23T08:31:11.312Z,4.45
2023-10-23T08:33:44.897Z,4.05
2023-10-23T08:36:12.285Z,4.47
2023-10-23T08:38:39.780Z,3.63
2023-10-23T08:41:07.712Z,3.75
2023-10-23T08:43:35.214Z,3.70
2023-10-23T08:46:02.616Z,3.45
2023-10-23T08:48:30.276Z,3.58
2023-10-23T08:51:00.654Z,3.67
2023-10-23T08:53:33.980Z,4.20
2023-10-23T08:56:05.129Z,4.07
2023-10-23T08:58:34.636Z,3.45
2023-10-23T09:01:02.125Z,3.53
2023-10-23T09:04:03.995Z,3.08
2023-10-23T09:06:21.578Z,2.92
2023-10-23T09:08:49.001Z,3.22
2023-10-23T09:11:16.281Z,3.03
2023-10-23T09:13:43.755Z,3.50
2023-10-23T09:16:12.340Z,3.33
2023-10-23T09:18:52.833Z,3.22
2023-10-23T09:21:20.848Z,2.78
2023-10-23T09:23:55.285Z,2.60
2023-10-23T09:26:23.068Z,3.10
2023-10-23T09:28:51.806Z,3.00
2023-10-23T09:31:19.392Z,3.55
2023-10-23T09:33:47.447Z,4.38
2023-10-23T09:36:15.824Z,3.80
2023-10-23T09:38:43.906Z,3.90
2023-10-23T09:41:11.790Z,3.63
2023-10-23T09:43:49.042Z,3.95
2023-10-23T09:46:16.536Z,3.90
2023-10-23T09:48:44.562Z,3.42
2023-10-23T09:51:16.245Z,5.22
2023-10-23T09:53:50.749Z,3.85
2023-10-23T09:58:50.112Z,4.03
2023-10-23T10:01:18.598Z,3.70
2023-10-23T10:03:47.610Z,3.22
2023-10-23T10:06:15.685Z,3.70
2023-10-23T10:08:44.423Z,3.53
2023-10-23T10:11:12.576Z,3.53
2023-10-23T10:13:40.130Z,3.40
2023-10-23T10:16:07.797Z,4.00
2023-10-23T10:18:36.470Z,3.35
2023-10-23T10:21:06.377Z,3.47
2023-10-23T10:23:35.006Z,3.38
2023-10-23T10:26:03.280Z,3.50
2023-10-23T10:28:30.568Z,3.30
2023-10-23T10:30:58.054Z,3.85
2023-10-23T10:34:18.663Z,3.00
2023-10-23T10:36:14.237Z,3.42
2023-10-23T10:38:43.582Z,3.53
2023-10-23T10:41:19.734Z,2.95
2023-10-23T10:43:54.022Z,3.40
2023-10-23T10:46:25.448Z,2.83
2023-10-23T10:48:57.174Z,2.95
2023-10-23T10:51:25.908Z,2.92
2023-10-23T10:54:03.616Z,3.10
2023-10-23T10:56:34.567Z,2.88
2023-10-23T10:59:02.662Z,2.97
2023-10-23T11:01:30.144Z,2.97
2023-10-23T11:03:57.699Z,2.65
2023-10-23T11:06:25.652Z,2.58
2023-10-23T11:08:55.875Z,2.40
2023-10-23T11:11:23.481Z,2.75
2023-10-23T11:13:50.857Z,2.25
2023-10-23T11:16:18.626Z,2.35
2023-10-23T11:18:46.269Z,2.08
2023-10-23T11:21:13.688Z,2.85
2023-10-23T11:23:41.179Z,1.88
2023-10-23T11:26:10.717Z,2.30
2023-10-23T11:28:39.003Z,2.65
2023-10-23T11:31:06.540Z,2.63
2023-10-23T11:33:33.848Z,2.60
2023-10-23T11:36:01.379Z,2.30
2023-10-23T11:38:28.904Z,2.70
2023-10-23T11:40:56.240Z,2.85
2023-10-23T11:43:23.747Z,2.58
2023-10-23T11:45:51.348Z,3.15
2023-10-23T11:48:18.928Z,3.42
2023-10-23T11:50:46.519Z,3.28
2023-10-23T11:53:16.790Z,3.83
2023-10-23T11:55:47.265Z,2.92
2023-10-23T11:58:14.725Z,3.22
2023-10-23T12:00:42.269Z,3.13
2023-10-23T12:03:09.675Z,3.30
2023-10-23T12:05:37.011Z,3.53
2023-10-23T12:08:07.409Z,3.08
2023-10-23T12:10:39.376Z,3.15
2023-10-23T12:13:07.384Z,3.63
2023-10-23T12:15:37.860Z,2.88
2023-10-23T12:18:05.773Z,3.08
2023-10-23T12:20:33.499Z,3.50
2023-10-23T12:23:01.053Z,3.15
2023-10-23T12:25:30.272Z,2.38
2023-10-23T12:27:58.240Z,2.70
2023-10-23T12:30:27.529Z,2.50
2023-10-23T12:33:16.947Z,2.30
2023-10-23T12:35:52.083Z,2.28
2023-10-23T12:38:19.937Z,2.50
2023-10-23T12:40:49.804Z,2.80
2023-10-23T12:43:17.400Z,2.28
2023-10-23T12:45:48.684Z,3.33
2023-10-23T12:48:16.475Z,2.50
2023-10-23T12:50:44.357Z,2.50
2023-10-23T12:53:11.950Z,2.90
2023-10-23T12:55:43.563Z,2.05
2023-10-23T12:58:11.005Z,2.63
2023-10-23T13:00:39.369Z,2.40
2023-10-23T13:03:06.895Z,2.40
2023-10-23T13:05:40.205Z,2.30
2023-10-23T13:08:07.696Z,3.28
2023-10-23T13:10:35.409Z,2.70
2023-10-23T13:13:03.265Z,2.92
2023-10-23T13:15:30.742Z,2.60
2023-10-23T13:17:59.444Z,2.92
2023-10-23T13:21:29.815Z,3.20
2023-10-23T13:23:14.259Z,3.13
2023-10-23T13:25:42.320Z,2.40
2023-10-23T13:28:10.309Z,2.72
2023-10-23T13:30:38.215Z,2.88
2023-10-23T13:33:05.877Z,2.60
2023-10-23T13:35:35.382Z,2.70
2023-10-23T13:38:02.882Z,2.53
2023-10-23T13:40:30.301Z,2.70
2023-10-23T13:42:57.723Z,2.42
2023-10-23T13:45:25.239Z,2.83
2023-10-23T13:47:53.778Z,2.65
2023-10-23T13:50:22.301Z,2.90
2023-10-23T13:52:49.625Z,3.03
2023-10-23T13:55:17.456Z,3.05
2023-10-23T13:57:45.004Z,3.03
2023-10-23T14:00:14.060Z,3.33
2023-10-23T14:02:43.036Z,3.22
2023-10-23T14:05:10.585Z,3.50
2023-10-23T14:07:38.426Z,3.00
2023-10-23T14:10:06.085Z,3.38
2023-10-23T14:12:33.500Z,3.20
2023-10-23T14:15:01.107Z,2.97
2023-10-23T14:17:29.329Z,3.28
2023-10-23T14:19:56.903Z,3.15
2023-10-23T14:22:24.220Z,3.03
2023-10-23T14:24:51.683Z,3.08
2023-10-23T14:27:19.034Z,2.80
2023-10-23T14:29:46.410Z,3.38
2023-10-23T14:32:13.853Z,3.08
2023-10-23T14:34:41.293Z,2.65
2023-10-23T14:37:08.778Z,2.80
2023-10-23T14:39:36.188Z,3.05
2023-10-23T14:42:03.547Z,2.92
2023-10-23T14:44:32.435Z,2.78
2023-10-23T14:46:59.897Z,2.85
2023-10-23T14:49:27.809Z,2.85
2023-10-23T14:51:55.324Z,2.58
2023-10-23T14:54:23.172Z,2.72
2023-10-23T14:56:51.340Z,3.45
2023-10-23T14:59:18.793Z,3.20
2023-10-23T15:01:46.412Z,3.13
2023-10-23T15:04:13.932Z,3.13
2023-10-23T15:06:41.436Z,3.55
2023-10-23T15:09:08.752Z,3.05
2023-10-23T15:11:36.055Z,3.28
2023-10-23T15:14:04.194Z,3.78
2023-10-23T15:16:33.721Z,3.00
2023-10-23T15:19:03.605Z,3.38
2023-10-23T15:21:31.131Z,2.88
2023-10-23T15:23:59.550Z,3.10
2023-10-23T15:26:26.821Z,3.10
2023-10-23T15:28:54.497Z,2.97
2023-10-23T15:31:21.894Z,2.65
2023-10-23T15:33:49.480Z,2.70
2023-10-23T15:36:17.127Z,3.10
2023-10-23T15:38:44.490Z,3.22
2023-10-23T15:41:18.152Z,3.13
2023-10-23T15:43:47.733Z,3.65
2023-10-23T15:46:17.681Z,3.10
2023-10-23T15:48:45.693Z,3.22
2023-10-23T15:51:13.564Z,3.05
2023-10-23T15:53:40.931Z,3.08
2023-10-23T15:56:08.984Z,3.30
2023-10-23T15:58:36.637Z,3.08
2023-10-23T16:01:05.002Z,2.90
2023-10-23T16:03:35.711Z,3.50
2023-10-23T16:06:04.970Z,3.30
2023-10-23T16:08:32.359Z,3.13
2023-10-23T16:11:01.108Z,3.00
2023-10-23T16:13:31.474Z,3.47
2023-10-23T16:16:01.191Z,3.55
2023-10-23T16:18:30.045Z,3.60
2023-10-23T16:20:58.343Z,2.97
2023-10-23T16:23:26.084Z,2.92
2023-10-23T16:25:56.393Z,3.50
2023-10-23T16:28:23.977Z,3.17
2023-10-23T16:30:51.432Z,3.00
2023-10-23T16:33:18.820Z,3.92
2023-10-23T16:35:46.220Z,3.83
2023-10-23T16:38:13.679Z,2.97
2023-10-23T16:40:41.109Z,3.67
2023-10-23T16:43:08.879Z,3.42
2023-10-23T16:45:45.887Z,3.30
2023-10-23T16:48:13.404Z,4.10
2023-10-23T16:50:40.725Z,4.13
2023-10-23T16:53:08.049Z,4.15
2023-10-23T16:55:38.137Z,3.70
2023-10-23T16:58:05.718Z,4.03
2023-10-23T17:00:33.064Z,3.95
2023-10-23T17:03:02.890Z,4.20
2023-10-23T17:05:30.412Z,4.50
2023-10-23T17:07:57.726Z,5.00
2023-10-23T17:10:25.370Z,4.72
2023-10-23T17:12:52.737Z,4.60
2023-10-23T17:15:20.187Z,4.93
2023-10-23T17:17:47.881Z,4.72
2023-10-23T17:20:17.282Z,4.55
2023-10-23T17:22:46.037Z,4.97
2023-10-23T17:25:13.577Z,5.88
2023-10-23T17:27:40.997Z,5.82
2023-10-23T17:30:10.656Z,5.07
2023-10-23T17:32:38.122Z,5.53
2023-10-23T17:35:05.585Z,5.38
2023-10-23T17:37:33.159Z,5.18
2023-10-23T17:40:02.147Z,6.20
2023-10-23T17:42:29.597Z,5.68
2023-10-23T17:44:56.907Z,5.70
2023-10-23T17:47:25.366Z,5.68
2023-10-23T17:49:54.977Z,5.88
2023-10-23T17:52:22.562Z,5.95
2023-10-23T17:54:50.140Z,6.40
2023-10-23T17:57:20.908Z,6.38
2023-10-23T17:59:48.449Z,6.68
2023-10-23T18:02:16.179Z,6.25
2023-10-23T18:04:47.657Z,6.32
2023-10-23T18:07:15.263Z,6.85
2023-10-23T18:09:44.714Z,6.50
2023-10-23T18:12:26.869Z,5.93
2023-10-23T18:14:58.912Z,6.00
2023-10-23T18:17:26.332Z,6.50
2023-10-23T18:19:54.206Z,6.65
2023-10-23T18:22:22.872Z,6.65
2023-10-23T18:24:53.818Z,6.93
2023-10-23T18:27:21.168Z,5.72
2023-10-23T18:29:48.465Z,6.68
2023-10-23T18:32:15.770Z,6.20
2023-10-23T18:34:43.098Z,6.13
2023-10-23T18:37:10.621Z,6.72
2023-10-23T18:39:38.131Z,6.65
2023-10-23T18:42:05.963Z,5.97
2023-10-23T18:44:33.559Z,6.00
2023-10-23T18:47:05.276Z,6.18
2023-10-23T18:49:32.793Z,6.43
2023-10-23T18:52:00.308Z,6.30
2023-10-23T18:54:27.663Z,5.97
2023-10-23T18:56:55.124Z,5.90
2023-10-23T18:59:22.614Z,6.45
2023-10-23T19:01:49.983Z,5.15
2023-10-23T19:04:17.555Z,5.53
2023-10-23T19:06:45.060Z,6.07
2023-10-23T19:09:12.495Z,5.97
2023-10-23T19:11:39.748Z,6.35
2023-10-23T19:14:07.372Z,6.43
2023-10-23T19:16:34.844Z,6.15
2023-10-23T19:19:02.583Z,6.28
2023-10-23T19:21:30.049Z,6.45
2023-10-23T19:23:57.564Z,7.20
2023-10-23T19:26:25.375Z,7.28
2023-10-23T19:28:52.723Z,7.70
2023-10-23T19:31:23.120Z,6.38
2023-10-23T19:33:50.685Z,7.93
2023-10-23T19:36:19.679Z,6.82
2023-10-23T19:38:47.723Z,7.32
2023-10-23T19:41:18.346Z,7.13
2023-10-23T19:43:50.232Z,6.78
2023-10-23T19:46:18.554Z,7.75
2023-10-23T19:48:49.631Z,7.38
2023-10-23T19:51:18.954Z,8.65
2023-10-23T19:53:49.332Z,8.27
2023-10-23T19:56:30.134Z,8.32
2023-10-23T19:59:00.377Z,9.25
2023-10-23T20:01:27.964Z,9.57
2023-10-23T20:03:55.584Z,8.70
2023-10-23T20:06:22.963Z,9.13
2023-10-23T20:08:50.652Z,9.10
2023-10-23T20:11:17.906Z,9.55
2023-10-23T20:13:45.314Z,8.13
2023-10-23T20:16:13.117Z,7.82
2023-10-23T20:18:41.808Z,7.22
2023-10-23T20:21:09.184Z,8.07
2023-10-23T20:23:36.891Z,7.40
2023-10-23T20:26:12.055Z,6.72
2023-10-23T20:28:39.734Z,5.82
2023-10-23T20:31:20.265Z,5.95
2023-10-23T20:33:50.215Z,5.30
2023-10-23T20:36:19.652Z,4.55
2023-10-23T20:38:47.540Z,4.72
2023-10-23T20:41:21.361Z,5.05
2023-10-23T20:43:50.158Z,5.13
2023-10-23T20:46:18.444Z,4.78
2023-10-23T20:48:46.101Z,4.35
2023-10-23T20:51:14.688Z,4.88
2023-10-23T20:53:42.021Z,4.18
2023-10-23T20:56:09.584Z,4.20
2023-10-23T20:58:37.178Z,4.25
2023-10-23T21:01:05.353Z,4.35
2023-10-23T21:03:33.093Z,4.70
2023-10-23T21:06:05.531Z,4.50
2023-10-23T21:08:36.965Z,4.43
2023-10-23T21:11:06.295Z,4.55
2023-10-23T21:13:33.642Z,4.40
2023-10-23T21:16:01.972Z,4.82
2023-10-23T21:18:29.569Z,4.45
2023-10-23T21:20:57.178Z,4.75
2023-10-23T21:23:24.676Z,4.80
2023-10-23T21:25:52.163Z,4.50
2023-10-23T21:28:26.920Z,4.80
2023-10-23T21:33:22.204Z,5.20
2023-10-23T21:35:49.720Z,4.50
2023-10-23T21:38:17.052Z,4.03
2023-10-23T21:40:51.023Z,3.92
2023-10-23T21:43:19.733Z,4.32
2023-10-23T21:46:15.202Z,4.25
2023-10-23T21:48:42.081Z,4.32
2023-10-23T21:51:09.421Z,4.60
2023-10-23T21:53:37.115Z,4.32
2023-10-23T21:56:04.712Z,4.13
2023-10-23T21:59:02.818Z,3.47
2023-10-23T22:01:22.164Z,3.92
2023-10-23T22:03:50.019Z,4.22
2023-10-23T22:06:17.765Z,4.60
2023-10-23T22:08:45.834Z,4.20
2023-10-23T22:11:13.306Z,4.57
2023-10-23T22:13:41.395Z,4.55
2023-10-23T22:16:08.887Z,4.25
2023-10-23T22:18:36.349Z,5.13
2023-10-23T22:21:04.172Z,4.80
2023-10-23T22:23:31.619Z,4.57
2023-10-23T22:26:00.487Z,4.40
2023-10-23T22:28:28.205Z,5.60
2023-10-23T22:30:55.642Z,5.80
2023-10-23T22:33:23.043Z,6.07
2023-10-23T22:35:50.482Z,6.68
2023-10-23T22:38:18.327Z,6.18
2023-10-23T22:40:46.208Z,7.13
2023-10-23T22:43:13.607Z,6.50
2023-10-23T22:45:51.272Z,6.95
2023-10-23T22:48:28.741Z,6.82
2023-10-23T22:50:56.528Z,7.00
2023-10-23T22:53:25.328Z,6.90
2023-10-23T22:55:54.705Z,7.25
2023-10-23T22:58:26.094Z,8.00
2023-10-23T23:00:53.607Z,7.13
2023-10-23T23:03:21.115Z,7.40
2023-10-23T23:05:50.338Z,7.78
2023-10-23T23:08:18.803Z,6.93
2023-10-23T23:10:47.083Z,6.90
2023-10-23T23:13:14.744Z,8.05
2023-10-23T23:15:43.508Z,7.88
2023-10-23T23:18:11.234Z,7.93
2023-10-23T23:20:41.380Z,8.02
2023-10-23T23:23:09.618Z,9.10
2023-10-23T23:25:37.165Z,8.52
2023-10-23T23:28:05.089Z,8.50
2023-10-23T23:30:33.405Z,9.20
2023-10-23T23:33:00.751Z,8.77
2023-10-23T23:35:28.080Z,10.63
2023-10-23T23:37:55.426Z,9.25
2023-10-23T23:40:22.771Z,9.10
2023-10-23T23:42:50.303Z,9.07
2023-10-23T23:45:17.706Z,9.48
2023-10-23T23:47:45.021Z,8.70
2023-10-23T23:50:12.489Z,10.63
2023-10-23T23:52:39.895Z,9.50
2023-10-23T23:55:07.621Z,10.07
2023-10-23T23:57:35.156Z,9.63
